sensor_id;sensor_type;location;lat;lon;timestamp;P1;durP1;ratioP1;P2;durP2;ratioP2
68072;SDS011;54862;51.502;7.446;2024-03-23T00:53:17;2.42;;;1.65;;
68072;SDS011;54862;51.502;7.446;2024-03-23T00:55:43;2.78;;;1.55;;
68072;SDS011;54862;51.502;7.446;2024-03-23T00:58:11;4.05;;;1.80;;
68072;SDS011;54862;51.502;7.446;2024-03-23T01:00:37;5.53;;;1.30;;
68072;SDS011;54862;51.502;7.446;2024-03-23T01:03:03;2.25;;;1.75;;
68072;SDS011;54862;51.502;7.446;2024-03-23T01:05:29;4.45;;;1.75;;
68072;SDS011;54862;51.502;7.446;2024-03-23T01:07:55;1.40;;;1.30;;
68072;SDS011;54862;51.502;7.446;2024-03-23T01:10:21;1.33;;;1.23;;
68072;SDS011;54862;51.502;7.446;2024-03-23T01:12:47;1.90;;;1.23;;
68072;SDS011;54862;51.502;7.446;2024-03-23T01:15:13;1.23;;;1.05;;
68072;SDS011;54862;51.502;7.446;2024-03-23T01:17:39;6.32;;;1.75;;
68072;SDS011;54862;51.502;7.446;2024-03-23T01:20:05;1.52;;;1.35;;
68072;SDS011;54862;51.502;7.446;2024-03-23T01:22:31;1.85;;;1.67;;
68072;SDS011;54862;51.502;7.446;2024-03-23T01:24:58;2.60;;;1.80;;
68072;SDS011;54862;51.502;7.446;2024-03-23T01:27:24;2.30;;;1.55;;
68072;SDS011;54862;51.502;7.446;2024-03-23T01:29:50;1.65;;;1.55;;
68072;SDS011;54862;51.502;7.446;2024-03-23T01:32:17;4.90;;;1.67;;
68072;SDS011;54862;51.502;7.446;2024-03-23T01:34:43;2.97;;;1.50;;
68072;SDS011;54862;51.502;7.446;2024-03-23T01:37:09;1.38;;;1.35;;
68072;SDS011;54862;51.502;7.446;2024-03-23T01:39:35;1.83;;;1.70;;
68072;SDS011;54862;51.502;7.446;2024-03-23T01:42:01;1.85;;;1.38;;
68072;SDS011;54862;51.502;7.446;2024-03-23T01:44:27;1.83;;;1.23;;
68072;SDS011;54862;51.502;7.446;2024-03-23T01:46:56;1.60;;;1.42;;
68072;SDS011;54862;51.502;7.446;2024-03-23T01:49:22;1.40;;;1.30;;
68072;SDS011;54862;51.502;7.446;2024-03-23T01:51:48;2.42;;;1.52;;
68072;SDS011;54862;51.502;7.446;2024-03-23T01:54:14;2.85;;;1.63;;
68072;SDS011;54862;51.502;7.446;2024-03-23T01:56:41;1.42;;;1.33;;
68072;SDS011;54862;51.502;7.446;2024-03-23T01:59:07;1.58;;;1.48;;
68072;SDS011;54862;51.502;7.446;2024-03-23T02:01:36;2.22;;;1.33;;
68072;SDS011;54862;51.502;7.446;2024-03-23T02:04:04;1.65;;;1.40;;
68072;SDS011;54862;51.502;7.446;2024-03-23T02:06:30;1.70;;;1.58;;
68072;SDS011;54862;51.502;7.446;2024-03-23T02:08:56;2.05;;;1.38;;
68072;SDS011;54862;51.502;7.446;2024-03-23T02:11:22;1.10;;;1.00;;
68072;SDS011;54862;51.502;7.446;2024-03-23T02:13:48;1.00;;;1.00;;
68072;SDS011;54862;51.502;7.446;2024-03-23T02:16:14;1.65;;;1.30;;
68072;SDS011;54862;51.502;7.446;2024-03-23T02:18:40;4.68;;;1.35;;
68072;SDS011;54862;51.502;7.446;2024-03-23T02:21:06;1.08;;;1.08;;
68072;SDS011;54862;51.502;7.446;2024-03-23T02:23:32;6.32;;;1.25;;
68072;SDS011;54862;51.502;7.446;2024-03-23T02:25:58;1.05;;;1.00;;
68072;SDS011;54862;51.502;7.446;2024-03-23T02:28:24;8.13;;;1.95;;
68072;SDS011;54862;51.502;7.446;2024-03-23T02:30:50;0.90;;;0.90;;
68072;SDS011;54862;51.502;7.446;2024-03-23T02:33:16;1.67;;;1.40;;
68072;SDS011;54862;51.502;7.446;2024-03-23T02:35:45;1.10;;;1.10;;
68072;SDS011;54862;51.502;7.446;2024-03-23T02:38:14;2.00;;;1.23;;
68072;SDS011;54862;51.502;7.446;2024-03-23T02:40:42;1.55;;;1.40;;
68072;SDS011;54862;51.502;7.446;2024-03-23T02:43:10;5.82;;;1.30;;
68072;SDS011;54862;51.502;7.446;2024-03-23T02:45:39;6.65;;;1.27;;
68072;SDS011;54862;51.502;7.446;2024-03-23T02:48:05;1.42;;;1.40;;
68072;SDS011;54862;51.502;7.446;2024-03-23T02:50:31;7.88;;;1.55;;
68072;SDS011;54862;51.502;7.446;2024-03-23T02:52:57;1.13;;;1.10;;
68072;SDS011;54862;51.502;7.446;2024-03-23T02:55:23;1.60;;;1.25;;
68072;SDS011;54862;51.502;7.446;2024-03-23T02:57:52;0.75;;;0.75;;
68072;SDS011;54862;51.502;7.446;2024-03-23T03:00:17;1.02;;;1.02;;
68072;SDS011;54862;51.502;7.446;2024-03-23T03:02:43;1.10;;;1.10;;
68072;SDS011;54862;51.502;7.446;2024-03-23T03:05:10;1.30;;;1.20;;
68072;SDS011;54862;51.502;7.446;2024-03-23T03:07:37;1.00;;;1.00;;
68072;SDS011;54862;51.502;7.446;2024-03-23T03:10:05;4.47;;;1.70;;
68072;SDS011;54862;51.502;7.446;2024-03-23T03:12:36;1.40;;;1.40;;
68072;SDS011;54862;51.502;7.446;2024-03-23T03:15:02;4.82;;;1.20;;
68072;SDS011;54862;51.502;7.446;2024-03-23T03:17:28;0.95;;;0.95;;
68072;SDS011;54862;51.502;7.446;2024-03-23T03:19:54;0.90;;;0.90;;
68072;SDS011;54862;51.502;7.446;2024-03-23T03:22:21;1.27;;;1.10;;
68072;SDS011;54862;51.502;7.446;2024-03-23T03:24:47;1.73;;;1.67;;
68072;SDS011;54862;51.502;7.446;2024-03-23T03:27:15;1.40;;;1.30;;
68072;SDS011;54862;51.502;7.446;2024-03-23T03:29:44;0.95;;;0.95;;
68072;SDS011;54862;51.502;7.446;2024-03-23T03:32:10;1.10;;;1.10;;
68072;SDS011;54862;51.502;7.446;2024-03-23T03:34:36;1.10;;;1.10;;
68072;SDS011;54862;51.502;7.446;2024-03-23T03:37:02;2.05;;;1.98;;
68072;SDS011;54862;51.502;7.446;2024-03-23T03:39:29;1.25;;;1.25;;
68072;SDS011;54862;51.502;7.446;2024-03-23T03:41:55;1.92;;;1.67;;
68072;SDS011;54862;51.502;7.446;2024-03-23T03:44:21;2.70;;;1.20;;
68072;SDS011;54862;51.502;7.446;2024-03-23T03:46:47;1.20;;;1.20;;
68072;SDS011;54862;51.502;7.446;2024-03-23T03:49:13;0.90;;;0.90;;
68072;SDS011;54862;51.502;7.446;2024-03-23T03:51:40;1.00;;;1.00;;
68072;SDS011;54862;51.502;7.446;2024-03-23T03:54:06;1.10;;;1.10;;
68072;SDS011;54862;51.502;7.446;2024-03-23T03:56:32;0.90;;;0.90;;
68072;SDS011;54862;51.502;7.446;2024-03-23T03:58:58;1.27;;;1.20;;
68072;SDS011;54862;51.502;7.446;2024-03-23T04:01:26;6.68;;;1.58;;
68072;SDS011;54862;51.502;7.446;2024-03-23T04:03:52;1.15;;;1.10;;
68072;SDS011;54862;51.502;7.446;2024-03-23T04:06:18;1.17;;;1.15;;
68072;SDS011;54862;51.502;7.446;2024-03-23T04:08:45;2.55;;;1.13;;
68072;SDS011;54862;51.502;7.446;2024-03-23T04:11:14;1.20;;;1.20;;
68072;SDS011;54862;51.502;7.446;2024-03-23T04:13:42;1.50;;;1.27;;
68072;SDS011;54862;51.502;7.446;2024-03-23T04:16:08;1.02;;;1.02;;
68072;SDS011;54862;51.502;7.446;2024-03-23T04:18:34;1.00;;;1.00;;
68072;SDS011;54862;51.502;7.446;2024-03-23T04:21:00;1.42;;;1.10;;
68072;SDS011;54862;51.502;7.446;2024-03-23T04:23:26;3.08;;;1.50;;
68072;SDS011;54862;51.502;7.446;2024-03-23T04:25:55;0.95;;;0.95;;
68072;SDS011;54862;51.502;7.446;2024-03-23T04:28:21;1.35;;;1.35;;
68072;SDS011;54862;51.502;7.446;2024-03-23T04:30:47;1.10;;;1.10;;
68072;SDS011;54862;51.502;7.446;2024-03-23T04:33:13;1.27;;;1.15;;
68072;SDS011;54862;51.502;7.446;2024-03-23T04:35:39;1.00;;;1.00;;
68072;SDS011;54862;51.502;7.446;2024-03-23T04:38:05;1.45;;;1.45;;
68072;SDS011;54862;51.502;7.446;2024-03-23T04:40:31;1.27;;;1.17;;
68072;SDS011;54862;51.502;7.446;2024-03-23T04:42:57;1.00;;;1.00;;
68072;SDS011;54862;51.502;7.446;2024-03-23T04:45:23;0.93;;;0.93;;
68072;SDS011;54862;51.502;7.446;2024-03-23T04:47:49;0.80;;;0.80;;
68072;SDS011;54862;51.502;7.446;2024-03-23T04:50:15;1.88;;;1.42;;
68072;SDS011;54862;51.502;7.446;2024-03-23T04:52:41;1.20;;;1.20;;
68072;SDS011;54862;51.502;7.446;2024-03-23T04:55:07;1.27;;;1.13;;
68072;SDS011;54862;51.502;7.446;2024-03-23T04:57:33;2.05;;;1.30;;
68072;SDS011;54862;51.502;7.446;2024-03-23T05:00:01;1.05;;;1.05;;
68072;SDS011;54862;51.502;7.446;2024-03-23T05:02:29;1.58;;;1.58;;
68072;SDS011;54862;51.502;7.446;2024-03-23T05:04:55;2.22;;;1.77;;
68072;SDS011;54862;51.502;7.446;2024-03-23T05:07:21;1.50;;;1.40;;
68072;SDS011;54862;51.502;7.446;2024-03-23T05:09:48;1.10;;;1.10;;
68072;SDS011;54862;51.502;7.446;2024-03-23T05:12:14;1.35;;;1.35;;
68072;SDS011;54862;51.502;7.446;2024-03-23T05:14:42;1.15;;;1.13;;
68072;SDS011;54862;51.502;7.446;2024-03-23T05:17:08;1.10;;;1.10;;
68072;SDS011;54862;51.502;7.446;2024-03-23T05:19:34;1.65;;;1.55;;
68072;SDS011;54862;51.502;7.446;2024-03-23T05:22:02;1.35;;;1.25;;
68072;SDS011;54862;51.502;7.446;2024-03-23T05:24:28;2.38;;;1.48;;
68072;SDS011;54862;51.502;7.446;2024-03-23T05:26:57;4.13;;;1.80;;
68072;SDS011;54862;51.502;7.446;2024-03-23T05:29:24;1.80;;;1.35;;
68072;SDS011;54862;51.502;7.446;2024-03-23T05:31:51;1.67;;;1.58;;
68072;SDS011;54862;51.502;7.446;2024-03-23T05:34:17;2.55;;;2.08;;
68072;SDS011;54862;51.502;7.446;2024-03-23T05:36:46;1.85;;;1.75;;
68072;SDS011;54862;51.502;7.446;2024-03-23T05:39:11;1.60;;;1.50;;
68072;SDS011;54862;51.502;7.446;2024-03-23T05:41:41;1.42;;;1.33;;
68072;SDS011;54862;51.502;7.446;2024-03-23T05:44:07;2.45;;;2.28;;
68072;SDS011;54862;51.502;7.446;2024-03-23T05:46:36;3.30;;;1.70;;
68072;SDS011;54862;51.502;7.446;2024-03-23T05:49:02;3.55;;;1.42;;
68072;SDS011;54862;51.502;7.446;2024-03-23T05:51:28;3.28;;;1.67;;
68072;SDS011;54862;51.502;7.446;2024-03-23T05:53:54;1.45;;;1.25;;
68072;SDS011;54862;51.502;7.446;2024-03-23T05:56:20;1.48;;;1.30;;
68072;SDS011;54862;51.502;7.446;2024-03-23T05:58:48;8.10;;;1.63;;
68072;SDS011;54862;51.502;7.446;2024-03-23T06:01:16;13.05;;;1.88;;
68072;SDS011;54862;51.502;7.446;2024-03-23T06:03:42;4.68;;;2.85;;
68072;SDS011;54862;51.502;7.446;2024-03-23T06:06:09;2.00;;;1.88;;
68072;SDS011;54862;51.502;7.446;2024-03-23T06:08:40;2.15;;;1.95;;
68072;SDS011;54862;51.502;7.446;2024-03-23T06:11:06;4.00;;;2.15;;
68072;SDS011;54862;51.502;7.446;2024-03-23T06:13:32;4.63;;;2.10;;
68072;SDS011;54862;51.502;7.446;2024-03-23T06:16:01;1.83;;;1.73;;
68072;SDS011;54862;51.502;7.446;2024-03-23T06:18:27;2.67;;;2.10;;
68072;SDS011;54862;51.502;7.446;2024-03-23T06:20:53;3.78;;;2.45;;
68072;SDS011;54862;51.502;7.446;2024-03-23T06:23:19;3.28;;;2.33;;
68072;SDS011;54862;51.502;7.446;2024-03-23T06:25:46;5.70;;;2.85;;
68072;SDS011;54862;51.502;7.446;2024-03-23T06:28:12;7.05;;;2.95;;
68072;SDS011;54862;51.502;7.446;2024-03-23T06:30:38;4.45;;;2.63;;
68072;SDS011;54862;51.502;7.446;2024-03-23T06:33:04;5.38;;;3.08;;
68072;SDS011;54862;51.502;7.446;2024-03-23T06:35:30;7.50;;;2.88;;
68072;SDS011;54862;51.502;7.446;2024-03-23T06:37:56;4.22;;;2.83;;
68072;SDS011;54862;51.502;7.446;2024-03-23T06:40:25;6.07;;;3.13;;
68072;SDS011;54862;51.502;7.446;2024-03-23T06:42:51;3.97;;;2.45;;
68072;SDS011;54862;51.502;7.446;2024-03-23T06:45:18;3.65;;;2.15;;
68072;SDS011;54862;51.502;7.446;2024-03-23T06:47:48;3.92;;;2.55;;
68072;SDS011;54862;51.502;7.446;2024-03-23T06:50:15;4.43;;;2.80;;
68072;SDS011;54862;51.502;7.446;2024-03-23T06:52:41;3.08;;;1.83;;
68072;SDS011;54862;51.502;7.446;2024-03-23T06:55:07;3.22;;;2.45;;
68072;SDS011;54862;51.502;7.446;2024-03-23T06:57:33;11.75;;;3.35;;
68072;SDS011;54862;51.502;7.446;2024-03-23T06:59:59;5.47;;;2.45;;
68072;SDS011;54862;51.502;7.446;2024-03-23T07:02:27;2.95;;;2.65;;
68072;SDS011;54862;51.502;7.446;2024-03-23T07:04:53;11.15;;;2.40;;
68072;SDS011;54862;51.502;7.446;2024-03-23T07:07:19;5.35;;;3.33;;
68072;SDS011;54862;51.502;7.446;2024-03-23T07:09:45;3.90;;;2.20;;
68072;SDS011;54862;51.502;7.446;2024-03-23T07:12:11;4.50;;;2.20;;
68072;SDS011;54862;51.502;7.446;2024-03-23T07:14:37;9.55;;;4.22;;
68072;SDS011;54862;51.502;7.446;2024-03-23T07:17:03;19.23;;;3.55;;
68072;SDS011;54862;51.502;7.446;2024-03-23T07:19:29;4.43;;;3.03;;
68072;SDS011;54862;51.502;7.446;2024-03-23T07:21:55;3.53;;;2.63;;
68072;SDS011;54862;51.502;7.446;2024-03-23T07:24:23;6.00;;;3.17;;
68072;SDS011;54862;51.502;7.446;2024-03-23T07:26:52;6.05;;;3.60;;
68072;SDS011;54862;51.502;7.446;2024-03-23T07:29:19;6.22;;;3.35;;
68072;SDS011;54862;51.502;7.446;2024-03-23T07:31:48;7.03;;;3.85;;
68072;SDS011;54862;51.502;7.446;2024-03-23T07:34:14;7.25;;;3.60;;
68072;SDS011;54862;51.502;7.446;2024-03-23T07:36:40;5.85;;;3.72;;
68072;SDS011;54862;51.502;7.446;2024-03-23T07:39:06;5.78;;;3.47;;
68072;SDS011;54862;51.502;7.446;2024-03-23T07:41:33;9.52;;;4.25;;
68072;SDS011;54862;51.502;7.446;2024-03-23T07:44:00;7.25;;;2.97;;
68072;SDS011;54862;51.502;7.446;2024-03-23T07:46:26;5.47;;;3.50;;
68072;SDS011;54862;51.502;7.446;2024-03-23T07:48:52;6.05;;;4.03;;
68072;SDS011;54862;51.502;7.446;2024-03-23T07:51:21;4.00;;;2.33;;
68072;SDS011;54862;51.502;7.446;2024-03-23T07:53:48;5.13;;;2.58;;
68072;SDS011;54862;51.502;7.446;2024-03-23T07:56:14;5.95;;;3.70;;
68072;SDS011;54862;51.502;7.446;2024-03-23T07:58:40;4.00;;;3.05;;
68072;SDS011;54862;51.502;7.446;2024-03-23T08:01:07;10.20;;;3.03;;
68072;SDS011;54862;51.502;7.446;2024-03-23T08:03:37;5.90;;;3.10;;
68072;SDS011;54862;51.502;7.446;2024-03-23T08:06:06;4.55;;;2.95;;
68072;SDS011;54862;51.502;7.446;2024-03-23T08:08:33;4.88;;;3.13;;
68072;SDS011;54862;51.502;7.446;2024-03-23T08:10:59;6.40;;;3.65;;
68072;SDS011;54862;51.502;7.446;2024-03-23T08:13:26;5.63;;;2.80;;
68072;SDS011;54862;51.502;7.446;2024-03-23T08:15:52;6.40;;;3.05;;
68072;SDS011;54862;51.502;7.446;2024-03-23T08:18:21;4.72;;;3.10;;
68072;SDS011;54862;51.502;7.446;2024-03-23T08:20:54;5.45;;;3.67;;
68072;SDS011;54862;51.502;7.446;2024-03-23T08:23:20;5.80;;;2.33;;
68072;SDS011;54862;51.502;7.446;2024-03-23T08:25:49;9.27;;;4.13;;
68072;SDS011;54862;51.502;7.446;2024-03-23T08:28:15;2.88;;;2.38;;
68072;SDS011;54862;51.502;7.446;2024-03-23T08:30:41;4.38;;;2.78;;
68072;SDS011;54862;51.502;7.446;2024-03-23T08:33:12;12.82;;;2.92;;
68072;SDS011;54862;51.502;7.446;2024-03-23T08:35:38;4.97;;;3.42;;
68072;SDS011;54862;51.502;7.446;2024-03-23T08:38:04;3.38;;;2.65;;
68072;SDS011;54862;51.502;7.446;2024-03-23T08:40:33;7.75;;;3.20;;
68072;SDS011;54862;51.502;7.446;2024-03-23T08:42:59;6.00;;;3.05;;
68072;SDS011;54862;51.502;7.446;2024-03-23T08:45:25;5.45;;;3.00;;
68072;SDS011;54862;51.502;7.446;2024-03-23T08:47:53;5.32;;;3.40;;
68072;SDS011;54862;51.502;7.446;2024-03-23T08:50:19;6.72;;;2.88;;
68072;SDS011;54862;51.502;7.446;2024-03-23T08:52:46;6.85;;;2.53;;
68072;SDS011;54862;51.502;7.446;2024-03-23T08:55:15;7.15;;;2.85;;
68072;SDS011;54862;51.502;7.446;2024-03-23T08:57:43;4.20;;;2.25;;
68072;SDS011;54862;51.502;7.446;2024-03-23T09:00:09;8.52;;;2.38;;
68072;SDS011;54862;51.502;7.446;2024-03-23T09:02:38;3.60;;;3.05;;
68072;SDS011;54862;51.502;7.446;2024-03-23T09:05:07;3.42;;;2.50;;
68072;SDS011;54862;51.502;7.446;2024-03-23T09:07:33;3.03;;;2.20;;
68072;SDS011;54862;51.502;7.446;2024-03-23T09:09:59;7.60;;;2.25;;
68072;SDS011;54862;51.502;7.446;2024-03-23T09:12:25;6.53;;;1.67;;
68072;SDS011;54862;51.502;7.446;2024-03-23T09:14:51;10.98;;;1.80;;
68072;SDS011;54862;51.502;7.446;2024-03-23T09:17:18;3.60;;;2.00;;
68072;SDS011;54862;51.502;7.446;2024-03-23T09:19:44;2.67;;;1.85;;
68072;SDS011;54862;51.502;7.446;2024-03-23T09:22:10;2.45;;;1.98;;
68072;SDS011;54862;51.502;7.446;2024-03-23T09:24:36;1.92;;;1.70;;
68072;SDS011;54862;51.502;7.446;2024-03-23T09:27:02;3.80;;;1.88;;
68072;SDS011;54862;51.502;7.446;2024-03-23T09:29:28;7.07;;;2.53;;
68072;SDS011;54862;51.502;7.446;2024-03-23T09:31:57;1.88;;;1.73;;
68072;SDS011;54862;51.502;7.446;2024-03-23T09:34:23;7.35;;;1.55;;
68072;SDS011;54862;51.502;7.446;2024-03-23T09:36:52;1.80;;;1.60;;
68072;SDS011;54862;51.502;7.446;2024-03-23T09:39:20;2.95;;;2.50;;
68072;SDS011;54862;51.502;7.446;2024-03-23T09:41:46;2.25;;;1.80;;
68072;SDS011;54862;51.502;7.446;2024-03-23T09:44:14;7.38;;;2.13;;
68072;SDS011;54862;51.502;7.446;2024-03-23T09:46:41;2.72;;;2.10;;
68072;SDS011;54862;51.502;7.446;2024-03-23T09:49:07;4.85;;;2.08;;
68072;SDS011;54862;51.502;7.446;2024-03-23T09:51:35;7.13;;;1.80;;
68072;SDS011;54862;51.502;7.446;2024-03-23T09:54:01;2.00;;;1.60;;
68072;SDS011;54862;51.502;7.446;2024-03-23T09:56:27;6.07;;;1.40;;
68072;SDS011;54862;51.502;7.446;2024-03-23T09:58:59;2.83;;;1.67;;
68072;SDS011;54862;51.502;7.446;2024-03-23T10:01:26;1.40;;;1.30;;
68072;SDS011;54862;51.502;7.446;2024-03-23T10:03:54;1.23;;;1.20;;
68072;SDS011;54862;51.502;7.446;2024-03-23T10:06:21;1.77;;;1.50;;
68072;SDS011;54862;51.502;7.446;2024-03-23T10:08:49;4.40;;;1.50;;
68072;SDS011;54862;51.502;7.446;2024-03-23T10:11:16;6.35;;;1.83;;
68072;SDS011;54862;51.502;7.446;2024-03-23T10:13:45;1.67;;;1.38;;
68072;SDS011;54862;51.502;7.446;2024-03-23T10:16:14;2.58;;;1.73;;
68072;SDS011;54862;51.502;7.446;2024-03-23T10:18:46;2.05;;;1.90;;
68072;SDS011;54862;51.502;7.446;2024-03-23T10:21:14;6.18;;;2.13;;
68072;SDS011;54862;51.502;7.446;2024-03-23T10:23:41;2.97;;;1.80;;
68072;SDS011;54862;51.502;7.446;2024-03-23T10:26:14;4.65;;;2.42;;
68072;SDS011;54862;51.502;7.446;2024-03-23T10:31:10;4.90;;;2.35;;
68072;SDS011;54862;51.502;7.446;2024-03-23T10:33:38;11.77;;;2.72;;
68072;SDS011;54862;51.502;7.446;2024-03-23T10:36:09;6.32;;;2.03;;
68072;SDS011;54862;51.502;7.446;2024-03-23T10:38:36;7.57;;;2.13;;
68072;SDS011;54862;51.502;7.446;2024-03-23T10:41:02;2.55;;;1.70;;
68072;SDS011;54862;51.502;7.446;2024-03-23T10:43:29;1.58;;;1.48;;
68072;SDS011;54862;51.502;7.446;2024-03-23T10:45:56;2.30;;;1.73;;
68072;SDS011;54862;51.502;7.446;2024-03-23T10:48:23;1.92;;;1.65;;
68072;SDS011;54862;51.502;7.446;2024-03-23T10:50:49;1.63;;;1.52;;
68072;SDS011;54862;51.502;7.446;2024-03-23T10:53:15;1.23;;;1.23;;
68072;SDS011;54862;51.502;7.446;2024-03-23T10:55:42;5.97;;;2.00;;
68072;SDS011;54862;51.502;7.446;2024-03-23T10:58:08;1.20;;;1.17;;
68072;SDS011;54862;51.502;7.446;2024-03-23T11:00:37;1.77;;;1.65;;
68072;SDS011;54862;51.502;7.446;2024-03-23T11:03:49;2.85;;;1.60;;
68072;SDS011;54862;51.502;7.446;2024-03-23T11:05:50;1.40;;;1.30;;
68072;SDS011;54862;51.502;7.446;2024-03-23T11:08:31;2.28;;;1.30;;
68072;SDS011;54862;51.502;7.446;2024-03-23T11:13:42;1.50;;;1.40;;
68072;SDS011;54862;51.502;7.446;2024-03-23T11:18:39;3.90;;;1.90;;
68072;SDS011;54862;51.502;7.446;2024-03-23T11:21:06;1.50;;;1.40;;
68072;SDS011;54862;51.502;7.446;2024-03-23T11:23:35;1.00;;;1.00;;
68072;SDS011;54862;51.502;7.446;2024-03-23T11:26:01;0.88;;;0.88;;
68072;SDS011;54862;51.502;7.446;2024-03-23T11:28:28;1.55;;;1.45;;
68072;SDS011;54862;51.502;7.446;2024-03-23T11:30:57;1.10;;;1.10;;
68072;SDS011;54862;51.502;7.446;2024-03-23T11:33:23;2.63;;;1.10;;
68072;SDS011;54862;51.502;7.446;2024-03-23T11:35:52;0.93;;;0.93;;
68072;SDS011;54862;51.502;7.446;2024-03-23T11:38:18;0.90;;;0.90;;
68072;SDS011;54862;51.502;7.446;2024-03-23T11:40:48;0.90;;;0.90;;
68072;SDS011;54862;51.502;7.446;2024-03-23T11:43:17;0.93;;;0.93;;
68072;SDS011;54862;51.502;7.446;2024-03-23T11:50:43;2.30;;;1.30;;
68072;SDS011;54862;51.502;7.446;2024-03-23T11:53:16;0.80;;;0.80;;
68072;SDS011;54862;51.502;7.446;2024-03-23T11:58:18;0.90;;;0.90;;
68072;SDS011;54862;51.502;7.446;2024-03-23T12:00:57;0.90;;;0.90;;
68072;SDS011;54862;51.502;7.446;2024-03-23T12:03:23;1.50;;;1.40;;
68072;SDS011;54862;51.502;7.446;2024-03-23T12:06:00;0.90;;;0.90;;
68072;SDS011;54862;51.502;7.446;2024-03-23T12:11:12;1.85;;;1.20;;
68072;SDS011;54862;51.502;7.446;2024-03-23T12:13:39;1.10;;;1.10;;
68072;SDS011;54862;51.502;7.446;2024-03-23T12:18:35;1.20;;;1.20;;
68072;SDS011;54862;51.502;7.446;2024-03-23T12:21:04;3.33;;;1.63;;
68072;SDS011;54862;51.502;7.446;2024-03-23T12:23:30;6.25;;;1.80;;
68072;SDS011;54862;51.502;7.446;2024-03-23T12:25:57;3.47;;;1.52;;
68072;SDS011;54862;51.502;7.446;2024-03-23T12:28:23;1.13;;;1.13;;
68072;SDS011;54862;51.502;7.446;2024-03-23T12:30:50;5.60;;;1.55;;
68072;SDS011;54862;51.502;7.446;2024-03-23T12:33:19;3.80;;;1.65;;
68072;SDS011;54862;51.502;7.446;2024-03-23T12:35:45;1.50;;;1.40;;
68072;SDS011;54862;51.502;7.446;2024-03-23T12:38:13;1.35;;;1.27;;
68072;SDS011;54862;51.502;7.446;2024-03-23T12:40:41;1.10;;;1.10;;
68072;SDS011;54862;51.502;7.446;2024-03-23T12:43:07;1.15;;;1.15;;
68072;SDS011;54862;51.502;7.446;2024-03-23T12:45:33;1.75;;;1.33;;
68072;SDS011;54862;51.502;7.446;2024-03-23T12:47:59;1.17;;;1.10;;
68072;SDS011;54862;51.502;7.446;2024-03-23T12:50:28;2.25;;;1.98;;
68072;SDS011;54862;51.502;7.446;2024-03-23T12:52:54;1.60;;;1.50;;
68072;SDS011;54862;51.502;7.446;2024-03-23T12:55:20;1.30;;;1.20;;
68072;SDS011;54862;51.502;7.446;2024-03-23T12:57:46;1.23;;;1.15;;
68072;SDS011;54862;51.502;7.446;2024-03-23T13:00:13;1.05;;;1.05;;
68072;SDS011;54862;51.502;7.446;2024-03-23T13:02:43;1.33;;;1.25;;
68072;SDS011;54862;51.502;7.446;2024-03-23T13:05:10;1.63;;;1.05;;
68072;SDS011;54862;51.502;7.446;2024-03-23T13:07:38;1.10;;;1.10;;
68072;SDS011;54862;51.502;7.446;2024-03-23T13:10:07;1.33;;;1.30;;
68072;SDS011;54862;51.502;7.446;2024-03-23T13:12:34;2.00;;;1.52;;
68072;SDS011;54862;51.502;7.446;2024-03-23T13:15:00;1.02;;;1.02;;
68072;SDS011;54862;51.502;7.446;2024-03-23T13:17:26;2.42;;;1.27;;
68072;SDS011;54862;51.502;7.446;2024-03-23T13:19:53;1.02;;;1.02;;
68072;SDS011;54862;51.502;7.446;2024-03-23T13:22:23;3.13;;;1.58;;
68072;SDS011;54862;51.502;7.446;2024-03-23T13:24:49;3.40;;;1.35;;
68072;SDS011;54862;51.502;7.446;2024-03-23T13:27:15;1.05;;;1.00;;
68072;SDS011;54862;51.502;7.446;2024-03-23T13:29:41;1.10;;;1.10;;
68072;SDS011;54862;51.502;7.446;2024-03-23T13:32:07;1.10;;;1.10;;
68072;SDS011;54862;51.502;7.446;2024-03-23T13:34:34;1.20;;;1.20;;
68072;SDS011;54862;51.502;7.446;2024-03-23T13:37:00;1.70;;;1.60;;
68072;SDS011;54862;51.502;7.446;2024-03-23T13:39:28;1.65;;;1.25;;
68072;SDS011;54862;51.502;7.446;2024-03-23T13:41:56;0.93;;;0.93;;
68072;SDS011;54862;51.502;7.446;2024-03-23T13:44:22;1.02;;;1.02;;
68072;SDS011;54862;51.502;7.446;2024-03-23T13:46:48;1.00;;;1.00;;
68072;SDS011;54862;51.502;7.446;2024-03-23T13:49:32;1.10;;;1.10;;
68072;SDS011;54862;51.502;7.446;2024-03-23T13:52:01;1.10;;;1.10;;
68072;SDS011;54862;51.502;7.446;2024-03-23T13:54:27;0.95;;;0.95;;
68072;SDS011;54862;51.502;7.446;2024-03-23T13:56:54;1.15;;;1.08;;
68072;SDS011;54862;51.502;7.446;2024-03-23T13:59:23;1.10;;;1.10;;
68072;SDS011;54862;51.502;7.446;2024-03-23T14:01:51;1.10;;;1.10;;
68072;SDS011;54862;51.502;7.446;2024-03-23T14:04:20;6.45;;;1.35;;
68072;SDS011;54862;51.502;7.446;2024-03-23T14:06:50;0.90;;;0.90;;
68072;SDS011;54862;51.502;7.446;2024-03-23T14:09:16;1.02;;;1.02;;
68072;SDS011;54862;51.502;7.446;2024-03-23T14:11:46;1.13;;;1.13;;
68072;SDS011;54862;51.502;7.446;2024-03-23T14:14:12;1.10;;;1.10;;
68072;SDS011;54862;51.502;7.446;2024-03-23T14:16:38;5.85;;;1.60;;
68072;SDS011;54862;51.502;7.446;2024-03-23T14:19:04;0.90;;;0.90;;
68072;SDS011;54862;51.502;7.446;2024-03-23T14:21:31;1.10;;;1.10;;
68072;SDS011;54862;51.502;7.446;2024-03-23T14:23:59;1.23;;;1.23;;
68072;SDS011;54862;51.502;7.446;2024-03-23T14:26:26;1.10;;;1.10;;
68072;SDS011;54862;51.502;7.446;2024-03-23T14:28:54;5.13;;;1.25;;
68072;SDS011;54862;51.502;7.446;2024-03-23T14:31:20;1.05;;;1.05;;
68072;SDS011;54862;51.502;7.446;2024-03-23T14:33:49;2.50;;;1.30;;
68072;SDS011;54862;51.502;7.446;2024-03-23T14:36:16;1.15;;;1.13;;
68072;SDS011;54862;51.502;7.446;2024-03-23T14:38:48;2.33;;;1.15;;
68072;SDS011;54862;51.502;7.446;2024-03-23T14:41:14;1.92;;;1.65;;
68072;SDS011;54862;51.502;7.446;2024-03-23T14:43:42;1.17;;;1.10;;
68072;SDS011;54862;51.502;7.446;2024-03-23T14:46:14;1.25;;;1.10;;
68072;SDS011;54862;51.502;7.446;2024-03-23T14:48:43;1.63;;;1.52;;
68072;SDS011;54862;51.502;7.446;2024-03-23T14:51:11;1.48;;;1.38;;
68072;SDS011;54862;51.502;7.446;2024-03-23T14:53:40;1.00;;;1.00;;
68072;SDS011;54862;51.502;7.446;2024-03-23T14:56:07;1.85;;;1.58;;
68072;SDS011;54862;51.502;7.446;2024-03-23T14:58:34;2.10;;;1.88;;
68072;SDS011;54862;51.502;7.446;2024-03-23T15:01:03;1.13;;;1.13;;
68072;SDS011;54862;51.502;7.446;2024-03-23T15:03:29;1.05;;;1.05;;
68072;SDS011;54862;51.502;7.446;2024-03-23T15:05:56;1.30;;;1.25;;
68072;SDS011;54862;51.502;7.446;2024-03-23T15:08:22;2.08;;;1.30;;
68072;SDS011;54862;51.502;7.446;2024-03-23T15:10:48;1.00;;;1.00;;
68072;SDS011;54862;51.502;7.446;2024-03-23T15:13:14;1.00;;;1.00;;
68072;SDS011;54862;51.502;7.446;2024-03-23T15:15:40;1.40;;;1.30;;
68072;SDS011;54862;51.502;7.446;2024-03-23T15:18:12;1.25;;;1.20;;
68072;SDS011;54862;51.502;7.446;2024-03-23T15:20:40;1.08;;;1.08;;
68072;SDS011;54862;51.502;7.446;2024-03-23T15:23:06;1.10;;;1.10;;
68072;SDS011;54862;51.502;7.446;2024-03-23T15:25:32;0.90;;;0.90;;
68072;SDS011;54862;51.502;7.446;2024-03-23T15:27:58;1.33;;;1.23;;
68072;SDS011;54862;51.502;7.446;2024-03-23T15:30:25;1.20;;;1.20;;
68072;SDS011;54862;51.502;7.446;2024-03-23T15:32:51;1.10;;;1.10;;
68072;SDS011;54862;51.502;7.446;2024-03-23T15:35:17;1.42;;;1.33;;
68072;SDS011;54862;51.502;7.446;2024-03-23T15:37:44;1.20;;;1.10;;
68072;SDS011;54862;51.502;7.446;2024-03-23T15:40:10;3.63;;;1.20;;
68072;SDS011;54862;51.502;7.446;2024-03-23T15:42:38;1.15;;;1.15;;
68072;SDS011;54862;51.502;7.446;2024-03-23T15:45:06;0.85;;;0.85;;
68072;SDS011;54862;51.502;7.446;2024-03-23T15:47:34;1.20;;;1.20;;
68072;SDS011;54862;51.502;7.446;2024-03-23T15:50:03;1.35;;;1.25;;
68072;SDS011;54862;51.502;7.446;2024-03-23T15:52:33;1.35;;;1.30;;
68072;SDS011;54862;51.502;7.446;2024-03-23T15:55:00;1.75;;;1.50;;
68072;SDS011;54862;51.502;7.446;2024-03-23T15:57:26;2.28;;;1.50;;
68072;SDS011;54862;51.502;7.446;2024-03-23T15:59:52;1.50;;;1.40;;